Time;durP1;ratioP1;P1;durP2;ratioP2;P2;SDS_P1;SDS_P2;PMS_P1;PMS_P2;Temp;Humidity;BMP_temperature;BMP_pressure;BME280_temperature;BME280_humidity;BME280_pressure;Samples;Min_cycle;Max_cycle;Signal;HPM_P1;HPM_P2
2021/11/30 00:01:31;;;;;;;16.37;5.33;;;4.60;99.90;;;;;;4052658;29;20215;-88
2021/11/30 00:03:38;;;;;;;16.87;5.43;;;4.70;99.90;;;;;;4052934;29;20275;-87
2021/11/30 00:05:39;;;;;;;12.10;5.00;;;4.80;99.90;;;;;;4052879;29;20197;-87
2021/11/30 00:07:40;;;;;;;18.60;5.23;;;4.70;99.90;;;;;;4053041;29;20662;-87
2021/11/30 00:11:41;;;;;;;19.33;4.97;;;4.70;99.90;;;;;;4068256;29;20208;-87
2021/11/30 00:13:42;;;;;;;17.57;4.57;;;4.70;99.90;;;;;;4052705;29;20266;-88
2021/11/30 00:15:44;;;;;;;15.77;4.70;;;4.80;99.90;;;;;;4053075;29;20181;-87
2021/11/30 00:17:44;;;;;;;14.00;4.43;;;4.80;99.90;;;;;;4068671;29;20192;-87
2021/11/30 00:19:48;;;;;;;14.40;4.40;;;4.80;99.90;;;;;;4068695;29;20204;-87
2021/11/30 00:21:48;;;;;;;19.57;4.50;;;4.90;99.90;;;;;;4054996;29;20209;-87
2021/11/30 00:23:49;;;;;;;11.80;4.20;;;4.90;99.90;;;;;;4071276;29;20191;-87
2021/11/30 00:25:50;;;;;;;14.33;4.10;;;4.90;99.90;;;;;;4056121;29;20263;-87
2021/11/30 00:27:52;;;;;;;9.93;3.17;;;5.00;99.90;;;;;;4056554;29;20169;-88
2021/11/30 00:29:53;;;;;;;9.23;3.47;;;5.10;99.90;;;;;;4071411;29;20261;-87
2021/11/30 00:31:54;;;;;;;14.87;3.67;;;4.90;99.90;;;;;;4056013;29;20172;-87
2021/11/30 00:33:55;;;;;;;12.03;3.43;;;4.90;99.90;;;;;;4055800;29;20650;-87
2021/11/30 00:35:56;;;;;;;9.40;3.20;;;4.90;99.90;;;;;;4055742;29;20267;-88
2021/11/30 00:37:58;;;;;;;12.77;2.77;;;4.90;99.90;;;;;;4055794;29;20177;-87
2021/11/30 00:39:59;;;;;;;13.33;3.17;;;4.80;99.90;;;;;;4056039;29;20268;-87
2021/11/30 00:42:01;;;;;;;11.93;3.27;;;4.90;99.90;;;;;;4055873;29;20227;-87
2021/11/30 00:44:02;;;;;;;12.03;2.50;;;5.00;99.90;;;;;;4055824;29;20656;-87
2021/11/30 00:46:15;;;;;;;10.37;3.17;;;4.90;99.90;;;;;;4056021;29;20248;-87
2021/11/30 00:48:21;;;;;;;9.07;2.87;;;4.90;99.90;;;;;;4055733;29;20269;-87
2021/11/30 00:50:23;;;;;;;10.13;2.77;;;4.90;99.90;;;;;;4055908;29;20254;-93
2021/11/30 00:52:25;;;;;;;8.90;3.00;;;5.00;99.90;;;;;;4055746;29;20639;-87
2021/11/30 00:54:28;;;;;;;13.13;3.10;;;5.20;99.90;;;;;;4055445;29;20284;-86
2021/11/30 00:56:29;;;;;;;7.20;2.90;;;5.20;99.90;;;;;;4055575;29;20175;-87
2021/11/30 00:58:30;;;;;;;8.10;2.63;;;5.20;99.90;;;;;;4055917;29;20271;-87
2021/11/30 01:00:35;;;;;;;8.80;2.67;;;5.10;99.90;;;;;;4055473;29;20173;-88
2021/11/30 01:02:36;;;;;;;10.27;2.53;;;5.00;99.90;;;;;;4071484;29;20176;-87
2021/11/30 01:04:37;;;;;;;8.47;2.73;;;5.10;99.90;;;;;;4055691;29;20193;-88
2021/11/30 01:06:39;;;;;;;7.50;2.70;;;5.10;99.90;;;;;;4056005;29;20191;-89
2021/11/30 01:08:40;;;;;;;7.60;2.47;;;5.10;99.90;;;;;;4055580;29;20188;-88
2021/11/30 01:10:41;;;;;;;14.17;2.97;;;5.30;99.90;;;;;;4055939;29;20268;-88
2021/11/30 01:12:42;;;;;;;11.67;2.97;;;5.30;99.90;;;;;;4055725;29;20185;-87
2021/11/30 01:14:43;;;;;;;10.43;2.63;;;5.10;99.90;;;;;;4055504;29;20197;-88
2021/11/30 01:16:44;;;;;;;8.37;2.53;;;5.00;99.90;;;;;;4055415;29;20279;-88
2021/11/30 01:18:45;;;;;;;13.93;2.87;;;5.00;99.90;;;;;;4055380;29;20252;-88
2021/11/30 01:20:46;;;;;;;9.67;2.73;;;5.00;99.90;;;;;;4055233;29;20307;-88
2021/11/30 01:22:47;;;;;;;9.07;3.13;;;5.10;99.90;;;;;;4055402;29;20184;-94
2021/11/30 01:24:47;;;;;;;10.47;2.80;;;5.10;99.90;;;;;;4055357;29;20294;-88
2021/11/30 01:26:48;;;;;;;11.70;2.77;;;5.10;99.90;;;;;;4055407;29;20181;-88
2021/11/30 01:28:49;;;;;;;10.17;2.70;;;4.90;99.90;;;;;;4070990;29;20220;-89
2021/11/30 01:30:50;;;;;;;7.73;2.40;;;5.00;99.90;;;;;;4055410;29;20235;-88
2021/11/30 01:32:51;;;;;;;9.30;3.00;;;5.00;99.90;;;;;;4055710;29;20208;-89
2021/11/30 01:34:51;;;;;;;7.73;2.80;;;4.90;99.90;;;;;;4055071;29;20212;-88
2021/11/30 01:36:53;;;;;;;6.00;2.20;;;4.80;99.90;;;;;;4070502;29;20180;-88
2021/11/30 01:38:55;;;;;;;9.20;2.97;;;4.80;99.90;;;;;;4054856;29;20271;-88
2021/11/30 01:40:56;;;;;;;7.67;2.63;;;4.80;99.90;;;;;;4054911;29;20283;-87
2021/11/30 01:43:00;;;;;;;6.80;2.47;;;4.80;99.90;;;;;;4055086;29;20298;-88
2021/11/30 01:45:08;;;;;;;8.10;2.87;;;4.90;99.90;;;;;;4070442;29;20196;-88
2021/11/30 01:51:34;;;;;;;6.57;2.47;;;4.90;99.90;;;;;;4070540;29;20267;-88
2021/11/30 01:53:35;;;;;;;6.17;2.80;;;4.80;99.90;;;;;;4055229;29;20184;-88
2021/11/30 01:55:36;;;;;;;8.33;3.17;;;4.80;99.90;;;;;;4055069;29;20332;-88
2021/11/30 01:57:37;;;;;;;7.03;2.83;;;4.80;99.90;;;;;;4054862;29;20173;-87
2021/11/30 01:59:38;;;;;;;11.43;3.07;;;4.80;99.90;;;;;;4055169;29;20669;-88
2021/11/30 02:01:39;;;;;;;8.90;3.17;;;5.00;99.90;;;;;;4070862;29;20223;-88
2021/11/30 02:03:41;;;;;;;11.90;2.80;;;5.00;99.90;;;;;;4055057;29;20208;-93
2021/11/30 02:05:42;;;;;;;9.53;2.67;;;4.90;99.90;;;;;;4069998;29;20681;-88
2021/11/30 02:07:43;;;;;;;12.77;3.43;;;5.00;99.90;;;;;;4054390;29;20650;-88
2021/11/30 02:09:45;;;;;;;6.73;2.80;;;5.10;99.90;;;;;;4055110;29;20538;-88
2021/11/30 02:11:46;;;;;;;9.27;3.17;;;5.00;99.90;;;;;;4055159;29;20181;-88
2021/11/30 02:13:47;;;;;;;6.70;2.53;;;5.00;99.90;;;;;;4054637;29;20264;-88
2021/11/30 02:15:51;;;;;;;10.00;3.23;;;5.10;99.90;;;;;;4055259;29;20221;-88
2021/11/30 02:17:54;;;;;;;7.63;3.00;;;5.10;99.90;;;;;;4054915;29;20180;-86
2021/11/30 02:20:00;;;;;;;10.87;3.43;;;5.10;99.90;;;;;;4054500;29;20639;-87
2021/11/30 02:22:00;;;;;;;10.17;3.40;;;5.20;99.90;;;;;;4054607;29;20224;-87
2021/11/30 02:24:03;;;;;;;7.30;2.60;;;5.30;99.90;;;;;;4055329;29;20275;-91
2021/11/30 02:26:12;;;;;;;8.90;3.70;;;5.20;99.90;;;;;;4054709;29;20253;-88
2021/11/30 02:28:12;;;;;;;9.63;3.70;;;5.30;99.90;;;;;;4054852;29;20232;-87
2021/11/30 02:30:14;;;;;;;8.23;3.30;;;5.40;99.90;;;;;;4054418;29;20192;-88
2021/11/30 02:32:15;;;;;;;8.60;3.43;;;5.30;99.90;;;;;;4055143;29;20297;-89
2021/11/30 02:34:16;;;;;;;9.00;3.53;;;5.30;99.90;;;;;;4054237;29;20204;-88
2021/11/30 02:36:36;;;;;;;11.13;3.77;;;5.30;99.90;;;;;;4069705;29;20192;-87
2021/11/30 02:38:36;;;;;;;9.57;3.17;;;5.20;99.90;;;;;;4055592;29;20184;-87
2021/11/30 02:40:37;;;;;;;9.37;3.77;;;5.30;99.90;;;;;;4054307;29;20549;-88
2021/11/30 02:42:38;;;;;;;6.23;3.53;;;5.30;99.90;;;;;;4053901;29;20176;-88
2021/11/30 02:44:39;;;;;;;8.87;3.60;;;5.40;99.90;;;;;;4053912;29;20203;-88
2021/11/30 02:46:44;;;;;;;8.90;3.73;;;5.30;99.90;;;;;;4070635;29;20613;-87
2021/11/30 02:48:45;;;;;;;8.37;3.40;;;5.40;99.90;;;;;;4069572;29;20557;-87
2021/11/30 02:50:46;;;;;;;9.73;4.00;;;5.30;99.90;;;;;;4054254;29;20239;-88
2021/11/30 02:52:47;;;;;;;13.27;4.07;;;5.40;99.90;;;;;;4054004;29;20199;-88
2021/11/30 02:54:53;;;;;;;11.83;3.50;;;5.30;99.90;;;;;;4055652;29;20208;-88
2021/11/30 02:56:57;;;;;;;8.03;4.40;;;5.40;99.90;;;;;;4053631;29;20287;-88
2021/11/30 02:58:58;;;;;;;11.60;4.23;;;5.40;99.90;;;;;;4053646;29;20187;-88
2021/11/30 03:01:01;;;;;;;7.10;3.63;;;5.50;99.90;;;;;;4053655;29;20299;-87
2021/11/30 03:03:02;;;;;;;11.70;4.40;;;5.40;99.90;;;;;;4054406;29;20177;-88
2021/11/30 03:05:04;;;;;;;10.10;4.40;;;5.50;99.90;;;;;;4070881;29;20203;-87
2021/11/30 03:07:12;;;;;;;13.87;4.70;;;5.60;99.90;;;;;;4053554;29;20188;-88
2021/11/30 03:09:13;;;;;;;9.37;4.27;;;5.70;99.90;;;;;;4054240;29;20263;-88
2021/11/30 03:11:13;;;;;;;9.07;4.53;;;5.70;99.90;;;;;;4054276;29;20184;-88
2021/11/30 03:13:14;;;;;;;13.03;4.87;;;5.60;99.90;;;;;;4069112;29;20183;-87
2021/11/30 03:15:19;;;;;;;10.83;4.80;;;5.70;99.90;;;;;;4053690;29;20204;-88
2021/11/30 03:17:20;;;;;;;8.93;4.93;;;5.70;99.90;;;;;;4053683;29;20232;-89
2021/11/30 03:19:21;;;;;;;12.03;5.73;;;5.70;99.90;;;;;;4053702;29;20766;-88
2021/11/30 03:21:22;;;;;;;9.70;5.23;;;5.70;99.90;;;;;;4068786;29;20208;-87
2021/11/30 03:23:23;;;;;;;12.67;6.10;;;5.60;99.90;;;;;;4054174;29;20177;-95
2021/11/30 03:25:23;;;;;;;10.87;6.20;;;5.70;99.90;;;;;;4053489;29;20203;-88
2021/11/30 03:27:24;;;;;;;10.50;6.53;;;5.70;99.90;;;;;;4054234;29;20177;-88
2021/11/30 03:29:25;;;;;;;10.10;6.83;;;5.80;99.90;;;;;;4053673;29;20291;-88
2021/11/30 03:34:00;;;;;;;18.57;7.23;;;5.80;99.90;;;;;;4069188;29;20244;-88
2021/11/30 03:36:01;;;;;;;14.93;7.33;;;5.70;99.90;;;;;;4053221;29;20173;-87
2021/11/30 03:38:02;;;;;;;16.47;7.10;;;5.80;99.90;;;;;;4053320;29;20191;-88
2021/11/30 03:40:04;;;;;;;14.80;8.07;;;5.80;99.90;;;;;;4053271;29;20185;-88
2021/11/30 03:42:05;;;;;;;15.70;8.67;;;5.90;99.90;;;;;;4053503;29;20224;-88
2021/11/30 03:44:07;;;;;;;13.47;8.50;;;5.90;99.90;;;;;;4053542;29;20228;-88
2021/11/30 03:46:07;;;;;;;13.40;7.80;;;5.90;99.90;;;;;;4053610;29;20268;-90
2021/11/30 03:48:08;;;;;;;12.37;7.97;;;5.90;99.90;;;;;;4053161;29;20180;-94
2021/11/30 03:50:10;;;;;;;15.03;9.07;;;5.80;99.90;;;;;;4053476;29;20189;-88
2021/11/30 03:52:11;;;;;;;18.73;10.20;;;5.80;99.90;;;;;;4053108;29;20279;-88
2021/11/30 03:54:12;;;;;;;14.90;9.73;;;5.80;99.90;;;;;;4053063;29;20666;-89
2021/11/30 03:56:13;;;;;;;18.77;10.53;;;5.90;99.90;;;;;;4052116;29;20607;-89
2021/11/30 03:58:14;;;;;;;20.03;10.70;;;6.00;99.90;;;;;;4052969;29;20187;-95
2021/11/30 04:00:15;;;;;;;18.97;10.43;;;6.10;99.90;;;;;;4052904;29;20205;-89
2021/11/30 04:02:16;;;;;;;19.77;10.97;;;6.10;99.90;;;;;;4068488;29;20223;-94
2021/11/30 04:04:21;;;;;;;20.10;11.37;;;6.10;99.90;;;;;;4053193;29;20196;-88
2021/11/30 04:06:24;;;;;;;16.10;11.00;;;6.00;99.90;;;;;;4068619;29;20184;-88
2021/11/30 04:08:24;;;;;;;20.83;11.37;;;6.10;99.90;;;;;;4053124;29;20188;-91
2021/11/30 04:10:25;;;;;;;20.53;11.97;;;6.10;99.90;;;;;;4053096;29;20318;-91
2021/11/30 04:12:27;;;;;;;22.43;11.90;;;6.10;99.90;;;;;;4068781;29;20284;-91
2021/11/30 04:14:28;;;;;;;20.30;12.17;;;6.30;99.90;;;;;;4052910;29;20201;-90
2021/11/30 04:16:28;;;;;;;22.20;12.50;;;6.30;99.90;;;;;;4052917;29;20236;-91
2021/11/30 04:18:30;;;;;;;24.20;12.93;;;6.30;99.90;;;;;;4068522;29;20183;-91
2021/11/30 04:20:31;;;;;;;18.90;11.73;;;6.30;99.90;;;;;;4052399;29;20173;-92
2021/11/30 04:22:32;;;;;;;18.23;12.13;;;6.30;99.90;;;;;;4052827;29;20181;-91
2021/11/30 04:24:33;;;;;;;21.03;13.10;;;6.30;99.90;;;;;;4052963;29;20686;-92
2021/11/30 04:26:34;;;;;;;17.57;11.77;;;6.40;99.90;;;;;;4052922;29;20185;-91
2021/11/30 04:28:35;;;;;;;17.97;12.83;;;6.50;99.90;;;;;;4068582;29;20195;-91
2021/11/30 04:30:36;;;;;;;20.30;11.73;;;6.60;99.90;;;;;;4052864;29;20177;-91
2021/11/30 04:32:37;;;;;;;24.03;12.83;;;6.50;99.90;;;;;;4068502;29;20267;-90
2021/11/30 04:34:38;;;;;;;19.03;11.33;;;6.50;99.90;;;;;;4068288;29;20691;-90
2021/11/30 04:36:39;;;;;;;17.27;11.23;;;6.60;99.90;;;;;;4053007;29;20184;-91
2021/11/30 04:38:39;;;;;;;17.60;11.67;;;6.60;99.90;;;;;;4052807;29;20526;-96
2021/11/30 04:40:40;;;;;;;18.10;11.70;;;6.60;99.90;;;;;;4052900;29;20187;-95
2021/11/30 04:42:43;;;;;;;13.47;9.33;;;6.60;99.90;;;;;;4068303;29;20188;-93
2021/11/30 04:44:54;;;;;;;16.77;10.03;;;6.50;99.90;;;;;;4052660;29;20217;-91
2021/11/30 04:47:06;;;;;;;19.27;11.00;;;6.50;99.90;;;;;;4068369;29;20180;-91
2021/11/30 04:49:28;;;;;;;18.03;10.90;;;6.60;99.90;;;;;;4052728;29;20259;-91
2021/11/30 04:51:30;;;;;;;20.40;12.37;;;6.50;99.90;;;;;;4052572;29;20181;-90
2021/11/30 04:53:31;;;;;;;21.83;11.87;;;6.60;99.90;;;;;;4052609;29;20176;-91
2021/11/30 04:55:32;;;;;;;20.93;11.07;;;6.60;99.90;;;;;;4052622;29;20247;-93
2021/11/30 04:57:33;;;;;;;12.70;7.73;;;6.50;99.90;;;;;;4052423;29;20216;-92
2021/11/30 04:59:34;;;;;;;17.83;11.97;;;6.60;99.90;;;;;;4052596;29;20225;-91
2021/11/30 05:01:35;;;;;;;19.23;11.43;;;6.60;99.90;;;;;;4068151;29;20212;-91
2021/11/30 05:03:36;;;;;;;19.70;12.13;;;6.60;99.90;;;;;;4052525;29;20173;-91
2021/11/30 05:05:37;;;;;;;20.93;12.37;;;6.60;99.90;;;;;;4052447;29;20216;-90
2021/11/30 05:07:38;;;;;;;16.40;9.00;;;6.60;99.90;;;;;;4054430;29;20260;-90
2021/11/30 05:09:38;;;;;;;22.97;13.70;;;6.50;99.90;;;;;;4071123;29;20176;-91
2021/11/30 05:11:39;;;;;;;21.67;13.20;;;6.60;99.90;;;;;;4055210;29;20217;-91
2021/11/30 05:13:40;;;;;;;22.17;12.73;;;6.70;99.90;;;;;;4055440;29;20189;-90
2021/11/30 05:15:40;;;;;;;21.33;14.07;;;6.70;99.90;;;;;;4070931;29;20282;-91
2021/11/30 05:17:42;;;;;;;22.13;13.47;;;6.70;99.90;;;;;;4055393;29;20538;-92
2021/11/30 05:19:42;;;;;;;25.13;13.90;;;6.70;99.90;;;;;;4055466;29;20666;-92
2021/11/30 05:21:43;;;;;;;21.93;12.70;;;6.80;99.90;;;;;;4055068;29;20220;-90
2021/11/30 05:23:44;;;;;;;22.20;14.40;;;6.80;99.90;;;;;;4054902;29;20177;-90
2021/11/30 05:25:45;;;;;;;22.30;15.23;;;6.90;99.90;;;;;;4070776;29;20180;-90
2021/11/30 05:27:48;;;;;;;27.20;15.40;;;6.90;99.90;;;;;;4070902;29;20172;-91
2021/11/30 05:29:49;;;;;;;27.50;15.10;;;6.90;99.90;;;;;;4055145;29;20203;-90
2021/11/30 05:31:50;;;;;;;23.53;14.57;;;6.90;99.90;;;;;;4055287;29;20646;-93
2021/11/30 05:33:51;;;;;;;28.03;14.77;;;6.90;99.90;;;;;;4054871;29;20184;-91
2021/11/30 05:35:52;;;;;;;23.77;14.63;;;6.90;99.90;;;;;;4055047;29;20177;-90
2021/11/30 05:37:53;;;;;;;20.13;14.10;;;6.90;99.90;;;;;;4070701;29;20215;-91
2021/11/30 05:39:53;;;;;;;19.97;14.60;;;6.90;99.90;;;;;;4055072;29;20185;-91
2021/11/30 05:41:54;;;;;;;23.53;14.03;;;6.90;99.90;;;;;;4070412;29;20283;-90
2021/11/30 05:43:55;;;;;;;27.80;15.27;;;7.00;99.90;;;;;;4055006;29;20236;-91
2021/11/30 05:45:56;;;;;;;26.20;14.30;;;7.00;99.90;;;;;;4054915;29;20173;-90
2021/11/30 05:47:57;;;;;;;18.23;13.87;;;7.10;99.90;;;;;;4054979;29;20260;-94
2021/11/30 05:49:57;;;;;;;21.93;14.70;;;7.10;99.90;;;;;;4070645;29;20187;-91
2021/11/30 05:52:00;;;;;;;17.50;11.37;;;7.10;99.90;;;;;;4054668;29;20237;-90
2021/11/30 05:54:01;;;;;;;21.00;13.10;;;7.10;99.90;;;;;;4054861;29;20265;-90
2021/11/30 05:56:05;;;;;;;26.43;12.97;;;7.10;99.90;;;;;;4054795;29;20713;-90
2021/11/30 05:58:05;;;;;;;14.83;10.77;;;7.00;99.90;;;;;;4054697;29;20654;-90
2021/11/30 06:00:09;;;;;;;17.93;10.73;;;7.10;99.90;;;;;;4070222;29;20180;-91
2021/11/30 06:02:14;;;;;;;16.40;11.13;;;6.90;99.90;;;;;;4070150;29;20219;-91
2021/11/30 06:04:14;;;;;;;14.90;10.37;;;7.00;99.90;;;;;;4070089;29;20765;-92
2021/11/30 06:06:16;;;;;;;20.77;10.83;;;7.00;99.90;;;;;;4054338;29;20181;-92
2021/11/30 06:08:17;;;;;;;16.10;10.57;;;7.10;99.90;;;;;;4086053;29;20179;-91
2021/11/30 06:10:18;;;;;;;14.37;10.33;;;7.10;99.90;;;;;;4054623;29;20169;-90
2021/11/30 06:12:18;;;;;;;14.43;9.83;;;7.10;99.90;;;;;;4054622;29;20194;-91
2021/11/30 06:14:19;;;;;;;13.40;9.87;;;7.10;99.90;;;;;;4054185;29;20209;-94
2021/11/30 06:16:21;;;;;;;15.23;9.97;;;7.20;99.90;;;;;;4070009;29;20180;-94
2021/11/30 06:18:21;;;;;;;12.93;9.00;;;7.20;99.90;;;;;;4053903;29;20666;-91
2021/11/30 06:20:22;;;;;;;13.33;8.70;;;7.30;99.90;;;;;;4054458;29;20185;-91
2021/11/30 06:22:23;;;;;;;12.63;8.57;;;7.30;99.90;;;;;;4069937;29;20302;-90
2021/11/30 06:24:24;;;;;;;10.03;7.30;;;7.30;99.90;;;;;;4054437;29;20561;-91
2021/11/30 06:26:24;;;;;;;10.07;7.10;;;7.30;99.90;;;;;;4054511;29;20201;-91
2021/11/30 06:28:26;;;;;;;9.50;7.47;;;7.20;99.90;;;;;;4054259;29;20256;-90
2021/11/30 06:30:27;;;;;;;12.07;6.80;;;7.20;99.90;;;;;;4054337;29;20512;-90
2021/11/30 06:32:27;;;;;;;8.53;6.30;;;7.20;99.90;;;;;;4054358;29;20188;-91
2021/11/30 06:34:28;;;;;;;8.33;5.97;;;7.20;99.90;;;;;;4054099;29;20201;-90
2021/11/30 06:36:29;;;;;;;8.20;5.87;;;7.30;99.90;;;;;;4054045;29;20181;-94
2021/11/30 06:38:31;;;;;;;8.07;5.23;;;7.40;99.90;;;;;;4054279;29;20262;-90
2021/11/30 06:40:32;;;;;;;7.93;4.97;;;7.60;99.90;;;;;;4054354;29;20180;-90
2021/11/30 06:42:33;;;;;;;7.83;5.60;;;7.50;99.90;;;;;;4054191;29;20181;-92
2021/11/30 06:44:35;;;;;;;7.80;5.07;;;7.50;99.90;;;;;;4053933;29;20217;-90
2021/11/30 06:46:36;;;;;;;7.03;4.50;;;7.50;99.90;;;;;;4053972;29;20358;-91
2021/11/30 06:48:36;;;;;;;6.30;4.37;;;7.50;99.90;;;;;;4053971;29;20173;-91
2021/11/30 06:50:38;;;;;;;6.77;4.10;;;7.50;99.90;;;;;;4054015;29;20181;-91
2021/11/30 06:52:39;;;;;;;6.07;4.00;;;7.60;99.90;;;;;;4054071;29;20184;-91
2021/11/30 06:54:43;;;;;;;5.97;3.50;;;7.70;99.90;;;;;;4053856;29;20197;-91
2021/11/30 06:56:44;;;;;;;3.83;3.13;;;7.70;99.90;;;;;;4069461;29;20207;-91
2021/11/30 06:58:45;;;;;;;4.70;2.87;;;7.60;99.90;;;;;;4069419;29;20184;-91
2021/11/30 07:00:49;;;;;;;7.13;3.37;;;7.70;99.90;;;;;;4053834;29;20177;-93
2021/11/30 07:02:51;;;;;;;5.67;3.00;;;7.80;99.90;;;;;;4069658;29;20725;-92
2021/11/30 07:04:54;;;;;;;3.17;2.80;;;7.80;99.90;;;;;;4053826;29;20245;-90
2021/11/30 07:09:16;;;;;;;92.47;54.27;;;7.80;99.90;;;;;;4069427;29;20181;-91
2021/11/30 07:11:37;;;;;;;11.57;10.40;;;7.80;99.90;;;;;;4069448;29;20658;-90
2021/11/30 07:13:39;;;;;;;16.23;13.17;;;7.80;99.90;;;;;;4053792;29;20244;-90
2021/11/30 07:15:40;;;;;;;6.03;5.03;;;7.90;99.90;;;;;;4053544;29;20209;-93
2021/11/30 07:17:40;;;;;;;6.43;4.77;;;8.00;99.90;;;;;;4053535;29;20244;-91
2021/11/30 07:19:41;;;;;;;4.87;2.80;;;8.00;99.90;;;;;;4053600;29;20176;-90
2021/11/30 07:21:42;;;;;;;4.70;4.00;;;8.00;99.90;;;;;;4053429;29;20333;-90
2021/11/30 07:23:43;;;;;;;4.20;3.63;;;7.90;99.90;;;;;;4053618;29;20180;-92
2021/11/30 07:25:44;;;;;;;3.47;2.70;;;8.00;99.90;;;;;;4053447;29;20188;-90
2021/11/30 07:27:45;;;;;;;3.30;2.50;;;8.00;99.90;;;;;;4053327;29;20184;-91
2021/11/30 07:29:46;;;;;;;4.63;3.03;;;8.00;99.90;;;;;;4053295;29;20264;-91
2021/11/30 07:31:47;;;;;;;5.80;4.80;;;8.10;99.90;;;;;;4053871;29;20187;-91
2021/11/30 07:33:48;;;;;;;8.23;3.60;;;8.00;99.90;;;;;;4053248;29;20184;-93
2021/11/30 07:35:50;;;;;;;7.23;5.30;;;8.10;99.90;;;;;;4053284;29;20177;-91
2021/11/30 07:37:51;;;;;;;5.67;5.07;;;8.10;99.90;;;;;;4068833;29;20242;-91
2021/11/30 07:39:52;;;;;;;3.73;2.40;;;8.10;99.90;;;;;;4053163;29;20180;-92
2021/11/30 07:41:53;;;;;;;3.67;2.40;;;8.20;99.90;;;;;;4053251;29;20220;-92
2021/11/30 07:43:53;;;;;;;9.03;3.97;;;8.20;99.90;;;;;;4053305;29;20185;-92
2021/11/30 07:45:54;;;;;;;5.13;3.63;;;8.30;99.90;;;;;;4053162;29;20175;-91
2021/11/30 07:47:56;;;;;;;4.17;2.70;;;8.30;99.90;;;;;;4053277;29;20184;-91
2021/11/30 07:49:57;;;;;;;5.30;2.90;;;8.40;99.90;;;;;;4053006;29;20659;-93
2021/11/30 07:52:00;;;;;;;4.07;2.63;;;8.40;99.90;;;;;;4053404;29;20196;-91
2021/11/30 07:54:04;;;;;;;6.55;3.67;;;8.40;99.90;;;;;;4053177;29;20220;-91
2021/11/30 07:56:05;;;;;;;6.00;4.27;;;8.40;99.90;;;;;;4053091;29;20666;-91
2021/11/30 07:58:06;;;;;;;4.87;3.03;;;8.50;99.90;;;;;;4053005;29;20172;-92
2021/11/30 08:00:11;;;;;;;7.03;3.53;;;8.50;99.90;;;;;;4052954;29;20662;-91
2021/11/30 08:02:14;;;;;;;5.27;3.20;;;8.60;99.90;;;;;;4053033;29;20220;-91
2021/11/30 08:04:15;;;;;;;5.77;3.60;;;8.50;99.90;;;;;;4052686;29;20277;-91
2021/11/30 08:06:16;;;;;;;6.93;3.37;;;8.50;99.90;;;;;;4052774;29;20185;-91
2021/11/30 08:08:17;;;;;;;4.87;3.33;;;8.50;99.90;;;;;;4052815;29;20176;-92
2021/11/30 08:10:22;;;;;;;5.13;3.20;;;8.50;99.90;;;;;;4068507;29;20180;-91
2021/11/30 08:12:23;;;;;;;8.17;4.47;;;8.60;99.90;;;;;;4052961;29;20620;-91
2021/11/30 08:14:23;;;;;;;5.73;3.13;;;8.70;99.90;;;;;;4068403;29;20200;-93
2021/11/30 08:16:24;;;;;;;7.50;4.00;;;8.70;99.90;;;;;;4053076;29;20195;-91
2021/11/30 08:18:26;;;;;;;8.67;4.17;;;8.80;99.90;;;;;;4052934;29;20191;-91
2021/11/30 08:20:27;;;;;;;7.33;4.20;;;8.90;99.90;;;;;;4052953;29;20181;-92
2021/11/30 08:22:28;;;;;;;6.67;4.23;;;8.90;99.90;;;;;;4052893;29;20299;-92
2021/11/30 08:24:28;;;;;;;8.63;4.60;;;8.90;99.90;;;;;;4068625;29;20232;-92
2021/11/30 08:26:30;;;;;;;8.83;4.60;;;9.00;99.90;;;;;;4052941;29;20192;-89
2021/11/30 08:28:30;;;;;;;6.70;4.00;;;9.00;99.90;;;;;;4068607;29;20188;-91
2021/11/30 08:30:31;;;;;;;7.73;4.63;;;8.90;99.90;;;;;;4052680;29;20181;-91
2021/11/30 08:32:34;;;;;;;9.37;5.10;;;8.80;99.90;;;;;;4052485;29;20185;-92
2021/11/30 08:34:37;;;;;;;8.30;4.97;;;8.90;99.90;;;;;;4068378;29;20192;-91
2021/11/30 08:36:37;;;;;;;7.70;4.63;;;9.00;99.90;;;;;;4052687;29;20173;-92
2021/11/30 08:38:39;;;;;;;8.97;4.80;;;8.80;99.90;;;;;;4052790;29;20173;-90
2021/11/30 08:40:40;;;;;;;7.73;5.07;;;8.70;99.90;;;;;;4052682;29;20228;-91
2021/11/30 08:42:41;;;;;;;12.07;5.10;;;8.70;99.90;;;;;;4070143;29;20188;-91
2021/11/30 08:44:42;;;;;;;7.47;4.93;;;8.80;99.90;;;;;;4055754;29;20248;-92
2021/11/30 08:46:43;;;;;;;8.27;4.77;;;8.90;99.90;;;;;;4071126;29;20286;-92
2021/11/30 08:48:44;;;;;;;7.13;4.53;;;9.00;99.90;;;;;;4055569;29;20181;-91
2021/11/30 08:50:45;;;;;;;11.13;4.73;;;9.00;99.90;;;;;;4055411;29;20187;-91
2021/11/30 08:52:46;;;;;;;8.23;4.33;;;9.00;99.90;;;;;;4071661;29;20176;-91
2021/11/30 08:54:47;;;;;;;7.67;4.63;;;9.10;99.90;;;;;;4055621;29;20219;-91
2021/11/30 08:56:48;;;;;;;6.18;4.40;;;9.10;99.90;;;;;;4071024;29;20180;-91
2021/11/30 08:58:52;;;;;;;6.83;4.20;;;9.20;99.90;;;;;;4071078;29;20172;-92
2021/11/30 09:00:53;;;;;;;9.07;4.70;;;9.10;99.90;;;;;;4055580;29;20256;-92
2021/11/30 09:02:54;;;;;;;7.63;4.20;;;9.00;99.90;;;;;;4055400;29;20275;-92
2021/11/30 09:04:56;;;;;;;6.05;4.13;;;9.10;99.90;;;;;;4055597;29;20567;-91
2021/11/30 09:06:56;;;;;;;7.37;3.63;;;9.20;99.90;;;;;;4055364;29;20177;-91
2021/11/30 09:08:57;;;;;;;6.88;4.05;;;9.30;99.90;;;;;;4055569;29;20629;-92
2021/11/30 09:10:58;;;;;;;7.10;4.60;;;9.50;99.90;;;;;;4055230;29;20173;-91
2021/11/30 09:12:59;;;;;;;7.37;4.20;;;9.70;99.90;;;;;;4055438;29;20176;-93
2021/11/30 09:15:00;;;;;;;8.47;4.13;;;9.60;99.90;;;;;;4055491;29;20292;-91
2021/11/30 09:17:02;;;;;;;5.33;4.03;;;9.60;99.90;;;;;;4055347;29;20181;-92
2021/11/30 09:19:04;;;;;;;7.32;4.00;;;9.60;99.90;;;;;;4055387;29;20181;-92
2021/11/30 09:21:05;;;;;;;7.93;4.10;;;9.70;99.90;;;;;;4070737;29;20204;-92
2021/11/30 09:23:06;;;;;;;7.30;3.70;;;9.80;99.90;;;;;;4055269;29;20179;-92
2021/11/30 09:25:08;;;;;;;7.93;4.20;;;9.70;99.90;;;;;;4055250;29;20274;-92
2021/11/30 09:27:09;;;;;;;7.93;3.85;;;9.80;99.90;;;;;;4055183;29;20185;-91
2021/11/30 09:29:11;;;;;;;5.87;3.47;;;9.90;99.90;;;;;;4055174;29;20557;-92
2021/11/30 09:31:13;;;;;;;9.40;3.57;;;9.80;99.90;;;;;;4055129;29;20173;-92
2021/11/30 09:33:14;;;;;;;13.93;8.07;;;9.70;99.90;;;;;;4055269;29;20177;-92
2021/11/30 09:35:18;;;;;;;26.77;15.50;;;9.70;99.90;;;;;;4055168;29;20196;-91
2021/11/30 09:37:22;;;;;;;12.57;4.00;;;9.60;99.90;;;;;;4055376;29;20212;-92
2021/11/30 09:39:22;;;;;;;11.55;5.05;;;9.80;99.90;;;;;;4055180;29;20206;-92
2021/11/30 09:41:24;;;;;;;39.70;28.70;;;9.80;99.90;;;;;;4055146;29;20208;-91
2021/11/30 09:43:25;;;;;;;6.23;4.03;;;9.80;99.90;;;;;;4070672;29;20184;-91
2021/11/30 09:45:27;;;;;;;9.60;6.53;;;9.60;99.90;;;;;;4055181;29;20654;-91
2021/11/30 09:47:28;;;;;;;8.20;3.30;;;9.60;99.90;;;;;;4086206;29;20176;-94
2021/11/30 09:49:30;;;;;;;6.80;3.20;;;9.60;99.90;;;;;;4070484;29;20211;-92
2021/11/30 09:51:31;;;;;;;6.45;3.25;;;9.70;99.90;;;;;;4054731;29;20177;-91
2021/11/30 09:53:33;;;;;;;11.05;3.70;;;9.80;99.90;;;;;;4069461;29;20203;-92
2021/11/30 09:55:36;;;;;;;8.20;3.60;;;9.60;99.90;;;;;;4070270;29;20232;-92
2021/11/30 09:57:36;;;;;;;11.68;3.72;;;9.60;99.90;;;;;;4054480;29;20290;-92
2021/11/30 09:59:37;;;;;;;8.40;4.50;;;9.70;99.90;;;;;;4054790;29;20184;-91
2021/11/30 10:01:38;;;;;;;10.15;4.05;;;9.60;99.90;;;;;;4054585;29;20281;-92
2021/11/30 10:03:43;;;;;;;9.23;4.18;;;9.60;99.90;;;;;;4054728;29;20267;-92
2021/11/30 10:05:44;;;;;;;8.13;3.40;;;9.60;99.90;;;;;;4054721;29;20184;-91
2021/11/30 10:07:51;;;;;;;10.87;4.10;;;9.60;99.90;;;;;;4054550;29;20220;-91
2021/11/30 10:10:12;;;;;;;9.88;3.65;;;9.60;99.90;;;;;;4054707;29;20200;-92
2021/11/30 10:12:12;;;;;;;6.30;3.05;;;9.70;99.90;;;;;;4054788;29;20192;-92
2021/11/30 10:14:24;;;;;;;6.88;3.05;;;9.70;99.90;;;;;;4070280;29;20291;-92
2021/11/30 10:16:25;;;;;;;6.65;3.30;;;9.70;99.90;;;;;;4054524;29;20180;-91
2021/11/30 10:18:42;;;;;;;6.20;3.73;;;9.80;99.90;;;;;;4054556;29;20625;-92
2021/11/30 10:20:48;;;;;;;5.47;2.47;;;9.90;99.90;;;;;;4069953;29;20184;-91
2021/11/30 10:22:52;;;;;;;7.33;3.10;;;9.90;99.90;;;;;;4054322;29;20620;-92
2021/11/30 10:25:09;;;;;;;7.93;2.90;;;9.80;99.90;;;;;;4054175;29;20314;-93
2021/11/30 10:27:09;;;;;;;8.73;3.20;;;9.80;99.90;;;;;;4054444;29;20195;-93
2021/11/30 10:29:13;;;;;;;8.45;3.30;;;9.90;99.90;;;;;;4054273;29;20602;-92
2021/11/30 10:31:13;;;;;;;6.63;2.75;;;10.10;99.90;;;;;;4054105;29;20181;-92
2021/11/30 10:33:19;;;;;;;4.68;3.03;;;10.10;99.90;;;;;;4054294;29;20181;-92
2021/11/30 10:35:23;;;;;;;8.02;2.95;;;10.00;99.90;;;;;;4054128;29;20329;-93
2021/11/30 10:37:25;;;;;;;6.33;3.30;;;9.80;99.90;;;;;;4054152;29;20646;-92
2021/11/30 10:39:33;;;;;;;7.57;3.00;;;9.80;99.90;;;;;;4069718;29;20172;-91
2021/11/30 10:41:34;;;;;;;7.50;3.10;;;9.90;99.90;;;;;;4054127;29;20255;-92
2021/11/30 10:43:42;;;;;;;7.47;3.30;;;10.00;99.90;;;;;;4054241;29;20200;-94
2021/11/30 10:45:46;;;;;;;5.03;3.00;;;10.00;99.90;;;;;;4054296;29;20634;-92
2021/11/30 10:47:47;;;;;;;7.97;3.30;;;10.00;99.90;;;;;;4085420;29;20178;-92
2021/11/30 10:49:51;;;;;;;6.00;2.85;;;10.10;99.90;;;;;;4054082;29;20664;-92